MSC Annamaria — H3HN — position and weather

sailwx.info

Track history (hours):
 
Tides and Currents Weather Stations Pressure Air Temp Water Temp Dewpoint Dewpoint Depression Visibility Wind Speed Wind Dir Waves Ship Positions

MSC Annamaria

Last reported at 2016-May-05 03:29 UTC. Time now 2016-May-05 10:27 UTC.
Position N 38°45' E 015°10'.

Length 188 m; draft 8.7 m.

Type: Ship (hazmat cat A). MMSI: 353852000.

Date/timePositionNaut miles runAvg speedWind from/ knotsBaromVisibWave heightAir tempDewpointWater temp
2016-May-05 03:29N 38°45' E 015°10'1212.3
2016-May-05 02:31N 38°38' E 015°22'1212.4
2016-May-05 01:32N 38°33' E 015°36'1212.2
2016-May-05 00:33N 38°28' E 015°50'3 3.5
2016-May-04 23:33N 38°28' E 015°55'0 0.0
2016-May-04 22:30N 38°28' E 015°55'0 0.0
2016-May-04 21:32N 38°28' E 015°55'0 0.0
2016-May-04 20:30N 38°28' E 015°55'0 0.0
2016-May-04 19:30N 38°28' E 015°55'0 0.0
2016-May-04 18:24N 38°28' E 015°55'0 0.0
2016-May-04 16:20N 38°28' E 015°55'0 0.0
2016-May-04 15:27N 38°28' E 015°55'0 0.0
2016-May-04 14:23N 38°28' E 015°55'0 0.0
2016-May-04 13:31N 38°28' E 015°55'0 0.0
2016-May-04 12:32N 38°28' E 015°55'0 0.0
2016-May-04 11:22N 38°28' E 015°55'0 0.0
2016-May-04 10:31N 38°28' E 015°55'0 0.0
2016-May-04 09:31N 38°28' E 015°55'0 0.0
2016-May-04 08:28N 38°28' E 015°55'0 0.0
2016-May-04 07:25N 38°28' E 015°55'0 0.0
2016-May-04 06:30N 38°28' E 015°55'0 0.0
2016-May-04 05:33N 38°28' E 015°55'0 0.0
2016-May-04 04:31N 38°28' E 015°55'0 0.0
2016-May-04 03:32N 38°28' E 015°55'0 0.0
2016-May-04 02:29N 38°28' E 015°55'0 0.0
2016-May-04 01:33N 38°28' E 015°55'0 0.0
2016-May-04 00:31N 38°28' E 015°55'0 0.0
2016-May-03 23:31N 38°28' E 015°55'0 0.0
2016-May-03 22:32N 38°28' E 015°55'0 0.0
2016-May-03 21:31N 38°28' E 015°55'0 0.0
2016-May-03 20:31N 38°28' E 015°55'0 0.0
2016-May-03 19:11N 38°28' E 015°55'0 0.0
2016-May-03 18:23N 38°28' E 015°55'0 0.0
2016-May-03 14:03N 38°28' E 015°55'0 0.0
2016-May-03 12:29N 38°28' E 015°55'1 1.4
2016-May-03 11:33N 38°27' E 015°54'5 4.9
2016-May-03 10:33N 38°28' E 015°48'8 7.3
2016-May-03 09:30N 38°31' E 015°39'1 1.2
2016-May-03 08:28N 38°31' E 015°40'6 6.5
2016-May-03 07:33N 38°30' E 015°48'1 0.9
2016-May-03 06:33N 38°30' E 015°47'2 1.9
2016-May-03 05:33N 38°31' E 015°45'2 2.0
2016-May-03 04:32N 38°32' E 015°43'2 1.7
2016-May-03 03:31N 38°33' E 015°41'1 1.5
2016-May-03 02:33N 38°33' E 015°39'1 1.1
2016-May-03 01:33N 38°34' E 015°38'1 1.3
2016-May-03 00:33N 38°34' E 015°36'1 1.3
2016-May-02 23:33N 38°35' E 015°35'1 1.3
2016-May-02 22:33N 38°35' E 015°33'1 1.4
2016-May-02 21:34N 38°36' E 015°32'1 1.2
2016-May-02 20:34N 38°36' E 015°30'1 1.0
2016-May-02 19:33N 38°37' E 015°31'7 7.3
2016-May-02 18:33N 38°37' E 015°41'1 0.9
2016-May-02 17:33N 38°38' E 015°40'1 1.0
2016-May-02 16:33N 38°38' E 015°39'1 1.0
2016-May-02 15:32N 38°38' E 015°37'1 1.1
2016-May-02 14:33N 38°38' E 015°36'1 1.4
2016-May-02 13:33N 38°37' E 015°34'1 0.6
2016-May-02 12:33N 38°37' E 015°33'0 0.3
2016-May-02 11:28N 38°36' E 015°33'0 0.2
2016-May-02 10:33N 38°36' E 015°33'0 0.1
2016-May-02 09:31N 38°36' E 015°34'0 0.1
2016-May-02 08:32N 38°36' E 015°33'0 0.1
2016-May-02 07:33N 38°36' E 015°34'0 0.2
2016-May-02 06:32N 38°37' E 015°34'1 0.6
2016-May-02 05:33N 38°37' E 015°33'1 0.6
2016-May-02 04:33N 38°38' E 015°33'0 0.4
2016-May-02 03:33N 38°37' E 015°33'0 0.2
2016-May-02 02:33N 38°37' E 015°33'0 0.1
2016-May-02 01:32N 38°37' E 015°32'0 0.2
2016-May-02 00:33N 38°37' E 015°32'0 0.2
2016-May-01 23:33N 38°37' E 015°32'0 0.2
2016-May-01 22:33N 38°38' E 015°32'1 0.5
2016-May-01 21:33N 38°38' E 015°32'1 0.7
2016-May-01 20:33N 38°39' E 015°31'1 0.7
2016-May-01 19:30N 38°39' E 015°31'1 0.5
2016-May-01 18:33N 38°39' E 015°30'1 1.2
2016-May-01 17:32N 38°40' E 015°31'1111.5
2016-May-01 16:33N 38°52' E 015°29'2 2.0
2016-May-01 15:33N 38°54' E 015°29'0 0.4
2016-May-01 14:25N 38°53' E 015°29'0 0.2
2016-May-01 13:33N 38°53' E 015°29'0 0.2
2016-May-01 12:27N 38°53' E 015°29'1 0.7
2016-May-01 11:31N 38°52' E 015°29'1 0.9
2016-May-01 10:31N 38°51' E 015°30'1 0.7
2016-May-01 09:33N 38°51' E 015°30'0 0.2
2016-May-01 07:29N 38°51' E 015°31'0 0.3
2016-May-01 06:33N 38°51' E 015°31'1 0.5
2016-May-01 04:30N 38°52' E 015°30'1 1.1
2016-May-01 03:24N 38°52' E 015°28'1 1.0
2016-May-01 02:16N 38°52' E 015°27'1 1.1
2016-May-01 01:31N 38°51' E 015°27'1 1.2
2016-May-01 00:34N 38°50' E 015°27'1 1.3
2016-Apr-30 23:32N 38°48' E 015°27'1 1.4
2016-Apr-30 22:34N 38°47' E 015°27'1 1.4
2016-Apr-30 21:34N 38°45' E 015°28'1 1.3
2016-Apr-30 20:33N 38°44' E 015°28'1 1.2
2016-Apr-30 19:33N 38°43' E 015°29'1 0.8
2016-Apr-30 18:33N 38°42' E 015°29'1 0.5
2016-Apr-30 17:33N 38°42' E 015°30'0 0.4
2016-Apr-30 16:33N 38°42' E 015°30'0 0.4
2016-Apr-30 15:33N 38°42' E 015°31'0 0.4
2016-Apr-30 14:34N 38°42' E 015°31'0 0.3
2016-Apr-30 13:33N 38°42' E 015°32'0 0.3
2016-Apr-30 12:34N 38°42' E 015°32'0 0.3
2016-Apr-30 11:33N 38°42' E 015°32'0 0.3
2016-Apr-30 10:27N 38°41' E 015°32'0 0.2
2016-Apr-30 09:28N 38°41' E 015°32'0 0.2
2016-Apr-30 08:31N 38°41' E 015°32'0 0.3
2016-Apr-30 07:34N 38°41' E 015°32'0 0.3
2016-Apr-30 06:33N 38°40' E 015°32'0 0.4
2016-Apr-30 05:33N 38°40' E 015°32'0 0.4
2016-Apr-30 04:30N 38°40' E 015°32'0 0.4
2016-Apr-30 03:33N 38°39' E 015°32'0 0.4
2016-Apr-30 02:32N 38°39' E 015°32'0 0.4
2016-Apr-30 01:33N 38°39' E 015°32'0 0.4
2016-Apr-30 00:33N 38°38' E 015°33'0 0.3
2016-Apr-29 23:29N 38°38' E 015°33'0 0.3
2016-Apr-29 22:33N 38°38' E 015°33'0 0.1
2016-Apr-29 21:34N 38°38' E 015°33'0 0.1
2016-Apr-29 20:32N 38°38' E 015°33'0 0.2
2016-Apr-29 19:33N 38°38' E 015°34'0 0.2
2016-Apr-29 18:33N 38°38' E 015°34'1 0.4
2016-Apr-29 16:33N 38°38' E 015°33'0 0.4
2016-Apr-29 15:31N 38°38' E 015°33'0 0.3
2016-Apr-29 14:27N 38°38' E 015°33'0 0.1
2016-Apr-29 13:32N 38°38' E 015°33'1 0.7
2016-Apr-29 12:33N 38°38' E 015°32'1211.9
2016-Apr-29 11:33N 38°29' E 015°42'1211.6
2016-Apr-29 10:33N 38°18' E 015°44'1111.4
2016-Apr-29 09:33N 38°08' E 015°37'1212.1
2016-Apr-29 08:33N 37°56' E 015°38'1312.4
2016-Apr-29 07:33N 37°50' E 015°52'1914.0
2016-Apr-29 06:10N 37°45' E 016°16'2213.7
2016-Apr-29 04:33N 37°39' E 016°43'1313.3
2016-Apr-29 03:33N 37°36' E 016°59'1313.3
2016-Apr-29 02:33N 37°32' E 017°15'1413.5
2016-Apr-29 01:33N 37°28' E 017°31'1313.2
2016-Apr-29 00:33N 37°25' E 017°47'10913.4
2016-Apr-28 16:26N 36°55' E 019°59'1713.2
2016-Apr-28 15:10N 36°51' E 020°19'813.2
2016-Apr-28 14:33N 36°49' E 020°29'13911.2
2016-Apr-28 02:14N 36°51' E 023°22'1013.7
2016-Apr-28 01:28N 37°01' E 023°26'1313.7
2016-Apr-28 00:32N 37°12' E 023°34'1413.9
2016-Apr-27 23:33N 37°25' E 023°40'1413.7
2016-Apr-27 22:33N 37°38' E 023°43'1413.5
2016-Apr-27 21:33N 37°50' E 023°35'3 2.6
2016-Apr-27 20:32N 37°52' E 023°32'0 0.1
2016-Apr-27 19:31N 37°52' E 023°32'0 0.0
2016-Apr-27 18:32N 37°52' E 023°32'0 0.0
2016-Apr-27 17:32N 37°52' E 023°32'0 0.0
2016-Apr-27 16:30N 37°52' E 023°32'0 0.5
2016-Apr-27 15:33N 37°52' E 023°33'9 9.2
2016-Apr-27 14:33N 37°46' E 023°42'1414.0
2016-Apr-27 13:33N 37°33' E 023°48'  
Track history (hours):
 
Tides and Currents Weather Stations Pressure Air Temp Water Temp Dewpoint Dewpoint Depression Visibility Wind Speed Wind Dir Waves Ship Positions

MSC Annamaria

Last reported at 2016-May-05 03:29 UTC. Time now 2016-May-05 10:27 UTC.
Position N 38°45' E 015°10'.

Length 188 m; draft 8.7 m.

Type: Ship (hazmat cat A). MMSI: 353852000.

Date/timePositionNaut miles runAvg speedWind from/ knotsBaromVisibWave heightAir tempDewpointWater temp
2016-May-05 03:29N 38°45' E 015°10'1212.3
2016-May-05 02:31N 38°38' E 015°22'1212.4
2016-May-05 01:32N 38°33' E 015°36'1212.2
2016-May-05 00:33N 38°28' E 015°50'3 3.5
2016-May-04 23:33N 38°28' E 015°55'0 0.0
2016-May-04 22:30N 38°28' E 015°55'0 0.0
2016-May-04 21:32N 38°28' E 015°55'0 0.0
2016-May-04 20:30N 38°28' E 015°55'0 0.0
2016-May-04 19:30N 38°28' E 015°55'0 0.0
2016-May-04 18:24N 38°28' E 015°55'0 0.0
2016-May-04 16:20N 38°28' E 015°55'0 0.0
2016-May-04 15:27N 38°28' E 015°55'0 0.0
2016-May-04 14:23N 38°28' E 015°55'0 0.0
2016-May-04 13:31N 38°28' E 015°55'0 0.0
2016-May-04 12:32N 38°28' E 015°55'0 0.0
2016-May-04 11:22N 38°28' E 015°55'0 0.0
2016-May-04 10:31N 38°28' E 015°55'0 0.0
2016-May-04 09:31N 38°28' E 015°55'0 0.0
2016-May-04 08:28N 38°28' E 015°55'0 0.0
2016-May-04 07:25N 38°28' E 015°55'0 0.0
2016-May-04 06:30N 38°28' E 015°55'0 0.0
2016-May-04 05:33N 38°28' E 015°55'0 0.0
2016-May-04 04:31N 38°28' E 015°55'0 0.0
2016-May-04 03:32N 38°28' E 015°55'0 0.0
2016-May-04 02:29N 38°28' E 015°55'0 0.0
2016-May-04 01:33N 38°28' E 015°55'0 0.0
2016-May-04 00:31N 38°28' E 015°55'0 0.0
2016-May-03 23:31N 38°28' E 015°55'0 0.0
2016-May-03 22:32N 38°28' E 015°55'0 0.0
2016-May-03 21:31N 38°28' E 015°55'0 0.0
2016-May-03 20:31N 38°28' E 015°55'0 0.0
2016-May-03 19:11N 38°28' E 015°55'0 0.0
2016-May-03 18:23N 38°28' E 015°55'0 0.0
2016-May-03 14:03N 38°28' E 015°55'0 0.0
2016-May-03 12:29N 38°28' E 015°55'1 1.4
2016-May-03 11:33N 38°27' E 015°54'5 4.9
2016-May-03 10:33N 38°28' E 015°48'8 7.3
2016-May-03 09:30N 38°31' E 015°39'1 1.2
2016-May-03 08:28N 38°31' E 015°40'6 6.5
2016-May-03 07:33N 38°30' E 015°48'1 0.9
2016-May-03 06:33N 38°30' E 015°47'2 1.9
2016-May-03 05:33N 38°31' E 015°45'2 2.0
2016-May-03 04:32N 38°32' E 015°43'2 1.7
2016-May-03 03:31N 38°33' E 015°41'1 1.5
2016-May-03 02:33N 38°33' E 015°39'1 1.1
2016-May-03 01:33N 38°34' E 015°38'1 1.3
2016-May-03 00:33N 38°34' E 015°36'1 1.3
2016-May-02 23:33N 38°35' E 015°35'1 1.3
2016-May-02 22:33N 38°35' E 015°33'1 1.4
2016-May-02 21:34N 38°36' E 015°32'1 1.2
2016-May-02 20:34N 38°36' E 015°30'1 1.0
2016-May-02 19:33N 38°37' E 015°31'7 7.3
2016-May-02 18:33N 38°37' E 015°41'1 0.9
2016-May-02 17:33N 38°38' E 015°40'1 1.0
2016-May-02 16:33N 38°38' E 015°39'1 1.0
2016-May-02 15:32N 38°38' E 015°37'1 1.1
2016-May-02 14:33N 38°38' E 015°36'1 1.4
2016-May-02 13:33N 38°37' E 015°34'1 0.6
2016-May-02 12:33N 38°37' E 015°33'0 0.3
2016-May-02 11:28N 38°36' E 015°33'0 0.2
2016-May-02 10:33N 38°36' E 015°33'0 0.1
2016-May-02 09:31N 38°36' E 015°34'0 0.1
2016-May-02 08:32N 38°36' E 015°33'0 0.1
2016-May-02 07:33N 38°36' E 015°34'0 0.2
2016-May-02 06:32N 38°37' E 015°34'1 0.6
2016-May-02 05:33N 38°37' E 015°33'1 0.6
2016-May-02 04:33N 38°38' E 015°33'0 0.4
2016-May-02 03:33N 38°37' E 015°33'0 0.2
2016-May-02 02:33N 38°37' E 015°33'0 0.1
2016-May-02 01:32N 38°37' E 015°32'0 0.2
2016-May-02 00:33N 38°37' E 015°32'0 0.2
2016-May-01 23:33N 38°37' E 015°32'0 0.2
2016-May-01 22:33N 38°38' E 015°32'1 0.5
2016-May-01 21:33N 38°38' E 015°32'1 0.7
2016-May-01 20:33N 38°39' E 015°31'1 0.7
2016-May-01 19:30N 38°39' E 015°31'1 0.5
2016-May-01 18:33N 38°39' E 015°30'1 1.2
2016-May-01 17:32N 38°40' E 015°31'1111.5
2016-May-01 16:33N 38°52' E 015°29'2 2.0
2016-May-01 15:33N 38°54' E 015°29'0 0.4
2016-May-01 14:25N 38°53' E 015°29'0 0.2
2016-May-01 13:33N 38°53' E 015°29'0 0.2
2016-May-01 12:27N 38°53' E 015°29'1 0.7
2016-May-01 11:31N 38°52' E 015°29'1 0.9
2016-May-01 10:31N 38°51' E 015°30'1 0.7
2016-May-01 09:33N 38°51' E 015°30'0 0.2
2016-May-01 07:29N 38°51' E 015°31'0 0.3
2016-May-01 06:33N 38°51' E 015°31'1 0.5
2016-May-01 04:30N 38°52' E 015°30'1 1.1
2016-May-01 03:24N 38°52' E 015°28'1 1.0
2016-May-01 02:16N 38°52' E 015°27'1 1.1
2016-May-01 01:31N 38°51' E 015°27'1 1.2
2016-May-01 00:34N 38°50' E 015°27'1 1.3
2016-Apr-30 23:32N 38°48' E 015°27'1 1.4
2016-Apr-30 22:34N 38°47' E 015°27'1 1.4
2016-Apr-30 21:34N 38°45' E 015°28'1 1.3
2016-Apr-30 20:33N 38°44' E 015°28'1 1.2
2016-Apr-30 19:33N 38°43' E 015°29'1 0.8
2016-Apr-30 18:33N 38°42' E 015°29'1 0.5
2016-Apr-30 17:33N 38°42' E 015°30'0 0.4
2016-Apr-30 16:33N 38°42' E 015°30'0 0.4
2016-Apr-30 15:33N 38°42' E 015°31'0 0.4
2016-Apr-30 14:34N 38°42' E 015°31'0 0.3
2016-Apr-30 13:33N 38°42' E 015°32'0 0.3
2016-Apr-30 12:34N 38°42' E 015°32'0 0.3
2016-Apr-30 11:33N 38°42' E 015°32'0 0.3
2016-Apr-30 10:27N 38°41' E 015°32'0 0.2
2016-Apr-30 09:28N 38°41' E 015°32'0 0.2
2016-Apr-30 08:31N 38°41' E 015°32'0 0.3
2016-Apr-30 07:34N 38°41' E 015°32'0 0.3
2016-Apr-30 06:33N 38°40' E 015°32'0 0.4
2016-Apr-30 05:33N 38°40' E 015°32'0 0.4
2016-Apr-30 04:30N 38°40' E 015°32'0 0.4
2016-Apr-30 03:33N 38°39' E 015°32'0 0.4
2016-Apr-30 02:32N 38°39' E 015°32'0 0.4
2016-Apr-30 01:33N 38°39' E 015°32'0 0.4
2016-Apr-30 00:33N 38°38' E 015°33'0 0.3
2016-Apr-29 23:29N 38°38' E 015°33'0 0.3
2016-Apr-29 22:33N 38°38' E 015°33'0 0.1
2016-Apr-29 21:34N 38°38' E 015°33'0 0.1
2016-Apr-29 20:32N 38°38' E 015°33'0 0.2
2016-Apr-29 19:33N 38°38' E 015°34'0 0.2
2016-Apr-29 18:33N 38°38' E 015°34'1 0.4
2016-Apr-29 16:33N 38°38' E 015°33'0 0.4
2016-Apr-29 15:31N 38°38' E 015°33'0 0.3
2016-Apr-29 14:27N 38°38' E 015°33'0 0.1
2016-Apr-29 13:32N 38°38' E 015°33'1 0.7
2016-Apr-29 12:33N 38°38' E 015°32'1211.9
2016-Apr-29 11:33N 38°29' E 015°42'1211.6
2016-Apr-29 10:33N 38°18' E 015°44'1111.4
2016-Apr-29 09:33N 38°08' E 015°37'1212.1
2016-Apr-29 08:33N 37°56' E 015°38'1312.4
2016-Apr-29 07:33N 37°50' E 015°52'1914.0
2016-Apr-29 06:10N 37°45' E 016°16'2213.7
2016-Apr-29 04:33N 37°39' E 016°43'1313.3
2016-Apr-29 03:33N 37°36' E 016°59'1313.3
2016-Apr-29 02:33N 37°32' E 017°15'1413.5
2016-Apr-29 01:33N 37°28' E 017°31'1313.2
2016-Apr-29 00:33N 37°25' E 017°47'10913.4
2016-Apr-28 16:26N 36°55' E 019°59'1713.2
2016-Apr-28 15:10N 36°51' E 020°19'813.2
2016-Apr-28 14:33N 36°49' E 020°29'13911.2
2016-Apr-28 02:14N 36°51' E 023°22'1013.7
2016-Apr-28 01:28N 37°01' E 023°26'1313.7
2016-Apr-28 00:32N 37°12' E 023°34'1413.9
2016-Apr-27 23:33N 37°25' E 023°40'1413.7
2016-Apr-27 22:33N 37°38' E 023°43'1413.5
2016-Apr-27 21:33N 37°50' E 023°35'3 2.6
2016-Apr-27 20:32N 37°52' E 023°32'0 0.1
2016-Apr-27 19:31N 37°52' E 023°32'0 0.0
2016-Apr-27 18:32N 37°52' E 023°32'0 0.0
2016-Apr-27 17:32N 37°52' E 023°32'0 0.0
2016-Apr-27 16:30N 37°52' E 023°32'0 0.5
2016-Apr-27 15:33N 37°52' E 023°33'9 9.2
2016-Apr-27 14:33N 37°46' E 023°42'1414.0
2016-Apr-27 13:33N 37°33' E 023°48'  

Dump ship's entire track history